Time;durP1;ratioP1;P1;durP2;ratioP2;P2;SDS_P1;SDS_P2;PMS_P1;PMS_P2;Temp;Humidity;BMP_temperature;BMP_pressure;BME280_temperature;BME280_humidity;BME280_pressure;Samples;Min_cycle;Max_cycle;Signal;HPM_P1;HPM_P2
2023/07/27 00:00:57;;;;;;;2.90;2.63;;;;;;;;;;5121182;28;20241;-63
2023/07/27 00:03:25;;;;;;;3.15;2.22;;;;;;;;;;5121316;28;20264;-63
2023/07/27 00:05:52;;;;;;;2.60;2.40;;;;;;;;;;5121118;28;20203;-63
2023/07/27 00:08:19;;;;;;;2.45;2.25;;;;;;;;;;5121426;28;20665;-63
2023/07/27 00:10:47;;;;;;;2.30;2.10;;;;;;;;;;5121431;28;20240;-63
2023/07/27 00:13:18;;;;;;;2.53;2.03;;;;;;;;;;5121053;28;20202;-63
2023/07/27 00:15:45;;;;;;;2.47;2.28;;;;;;;;;;5121318;28;20207;-63
2023/07/27 00:18:13;;;;;;;2.95;2.47;;;;;;;;;;5120908;28;20209;-63
2023/07/27 00:20:40;;;;;;;3.05;2.10;;;;;;;;;;5120899;28;20307;-63
2023/07/27 00:23:08;;;;;;;2.70;2.08;;;;;;;;;;5121217;28;20203;-63
2023/07/27 00:25:35;;;;;;;2.22;2.03;;;;;;;;;;5120791;28;20290;-63
2023/07/27 00:28:03;;;;;;;2.53;2.10;;;;;;;;;;5121121;28;20211;-63
2023/07/27 00:30:32;;;;;;;2.05;1.92;;;;;;;;;;5121446;28;20662;-64
2023/07/27 00:32:59;;;;;;;2.47;1.90;;;;;;;;;;5120825;28;20217;-63
2023/07/27 00:35:27;;;;;;;2.42;1.83;;;;;;;;;;5120655;28;20262;-64
2023/07/27 00:37:54;;;;;;;2.25;2.05;;;;;;;;;;5120536;28;20642;-64
2023/07/27 00:40:22;;;;;;;2.50;1.80;;;;;;;;;;5120983;28;20309;-66
2023/07/27 00:42:49;;;;;;;2.85;1.83;;;;;;;;;;5121185;28;20282;-63
2023/07/27 00:45:17;;;;;;;1.90;1.80;;;;;;;;;;5119317;28;20304;-63
2023/07/27 00:47:45;;;;;;;1.90;1.80;;;;;;;;;;5120444;28;20259;-63
2023/07/27 00:50:13;;;;;;;2.55;1.77;;;;;;;;;;5120461;28;20252;-63
2023/07/27 00:52:42;;;;;;;2.15;1.92;;;;;;;;;;5120376;28;20618;-63
2023/07/27 00:55:09;;;;;;;2.17;1.65;;;;;;;;;;5120312;28;20297;-63
2023/07/27 00:57:37;;;;;;;2.33;1.80;;;;;;;;;;5120571;28;20242;-63
2023/07/27 01:00:05;;;;;;;3.67;1.95;;;;;;;;;;5120451;28;20650;-63
2023/07/27 01:02:32;;;;;;;2.17;2.08;;;;;;;;;;5120541;28;20206;-63
2023/07/27 01:05:01;;;;;;;2.22;1.55;;;;;;;;;;5120421;28;20202;-63
2023/07/27 01:07:29;;;;;;;2.05;1.85;;;;;;;;;;5120210;28;20203;-63
2023/07/27 01:09:57;;;;;;;2.10;1.90;;;;;;;;;;5120034;28;20210;-64
2023/07/27 01:12:27;;;;;;;1.70;1.60;;;;;;;;;;5119909;28;20199;-64
2023/07/27 01:15:10;;;;;;;2.80;1.80;;;;;;;;;;5119730;28;20234;-63
2023/07/27 01:17:41;;;;;;;2.00;1.83;;;;;;;;;;5120166;28;20305;-63
2023/07/27 01:20:18;;;;;;;2.38;1.95;;;;;;;;;;5119915;28;20234;-63
2023/07/27 01:22:54;;;;;;;1.50;1.40;;;;;;;;;;5119935;28;20213;-63
2023/07/27 01:25:44;;;;;;;2.22;1.60;;;;;;;;;;5119864;28;20302;-63
2023/07/27 01:28:15;;;;;;;2.00;1.80;;;;;;;;;;5119929;28;20630;-63
2023/07/27 01:30:49;;;;;;;1.80;1.70;;;;;;;;;;5119634;28;20199;-63
2023/07/27 01:33:19;;;;;;;2.05;1.95;;;;;;;;;;5119651;28;20203;-63
2023/07/27 01:35:49;;;;;;;1.80;1.70;;;;;;;;;;5119739;28;20258;-63
2023/07/27 01:38:16;;;;;;;2.33;1.80;;;;;;;;;;5119985;28;20289;-63
2023/07/27 01:40:44;;;;;;;2.35;1.58;;;;;;;;;;5119627;28;20273;-64
2023/07/27 01:43:12;;;;;;;1.90;1.80;;;;;;;;;;5119412;28;20285;-64
2023/07/27 01:45:40;;;;;;;1.80;1.70;;;;;;;;;;5119766;28;20203;-64
2023/07/27 01:48:10;;;;;;;2.72;1.70;;;;;;;;;;5119728;28;20253;-63
2023/07/27 01:50:38;;;;;;;1.83;1.70;;;;;;;;;;5119515;28;20265;-63
2023/07/27 01:53:06;;;;;;;2.13;1.77;;;;;;;;;;5118928;28;20301;-63
2023/07/27 01:55:34;;;;;;;1.70;1.60;;;;;;;;;;5119116;28;20230;-63
2023/07/27 01:58:02;;;;;;;1.85;1.70;;;;;;;;;;5119061;28;20203;-63
2023/07/27 02:00:30;;;;;;;2.05;1.90;;;;;;;;;;5119101;28;20202;-63
2023/07/27 02:02:57;;;;;;;2.25;2.08;;;;;;;;;;5119435;28;20210;-64
2023/07/27 02:05:26;;;;;;;3.70;1.70;;;;;;;;;;5119169;28;20206;-65
2023/07/27 02:07:53;;;;;;;2.28;1.70;;;;;;;;;;5118717;28;20207;-63
2023/07/27 02:10:21;;;;;;;3.03;2.00;;;;;;;;;;5119497;28;20290;-64
2023/07/27 02:12:51;;;;;;;2.00;1.80;;;;;;;;;;5119194;28;20625;-63
2023/07/27 02:15:24;;;;;;;2.38;1.88;;;;;;;;;;5118796;28;20235;-63
2023/07/27 02:17:54;;;;;;;1.80;1.70;;;;;;;;;;5118609;28;20301;-63
2023/07/27 02:20:21;;;;;;;1.80;1.70;;;;;;;;;;5118949;28;20264;-63
2023/07/27 02:22:51;;;;;;;2.08;1.90;;;;;;;;;;5118660;28;20697;-63
2023/07/27 02:25:19;;;;;;;2.95;2.08;;;;;;;;;;5118861;28;20203;-63
2023/07/27 02:27:47;;;;;;;2.55;2.03;;;;;;;;;;5118846;28;20571;-63
2023/07/27 02:30:15;;;;;;;2.05;1.88;;;;;;;;;;5118760;28;20293;-63
2023/07/27 02:32:42;;;;;;;3.22;2.20;;;;;;;;;;5118504;28;20271;-63
2023/07/27 02:35:10;;;;;;;2.78;2.08;;;;;;;;;;5118094;28;20265;-63
2023/07/27 02:37:38;;;;;;;2.58;2.38;;;;;;;;;;5118354;28;20598;-64
2023/07/27 02:40:07;;;;;;;2.58;2.38;;;;;;;;;;5118705;28;20203;-63
2023/07/27 02:42:35;;;;;;;2.78;2.50;;;;;;;;;;5118829;28;20585;-63
2023/07/27 02:45:04;;;;;;;2.53;2.22;;;;;;;;;;5118388;28;20594;-63
2023/07/27 02:47:31;;;;;;;2.45;2.10;;;;;;;;;;5118422;28;20202;-63
2023/07/27 02:49:59;;;;;;;2.20;2.00;;;;;;;;;;5118732;28;20207;-63
2023/07/27 02:52:26;;;;;;;4.65;2.45;;;;;;;;;;5118162;28;20199;-63
2023/07/27 02:54:54;;;;;;;2.50;2.30;;;;;;;;;;5118218;28;20203;-63
2023/07/27 02:57:23;;;;;;;4.53;2.30;;;;;;;;;;5118268;28;20202;-63
2023/07/27 02:59:50;;;;;;;2.63;2.10;;;;;;;;;;5118667;28;20483;-63
2023/07/27 03:02:18;;;;;;;2.50;2.30;;;;;;;;;;5117954;28;20614;-63
2023/07/27 03:04:45;;;;;;;2.40;2.20;;;;;;;;;;5118147;28;20207;-63
2023/07/27 03:07:13;;;;;;;2.13;1.92;;;;;;;;;;5116811;28;20213;-63
2023/07/27 03:09:40;;;;;;;2.20;2.00;;;;;;;;;;5118020;28;20644;-63
2023/07/27 03:12:08;;;;;;;2.67;2.47;;;;;;;;;;5118103;28;20237;-63
2023/07/27 03:14:37;;;;;;;2.83;2.00;;;;;;;;;;5118210;28;20293;-64
2023/07/27 03:17:05;;;;;;;2.30;2.10;;;;;;;;;;5118176;28;20761;-63
2023/07/27 03:19:32;;;;;;;2.33;2.10;;;;;;;;;;5117155;28;20670;-63
2023/07/27 03:22:00;;;;;;;2.53;2.33;;;;;;;;;;5117556;28;20222;-63
2023/07/27 03:24:27;;;;;;;2.50;2.30;;;;;;;;;;5117968;28;20230;-63
2023/07/27 03:26:55;;;;;;;2.67;2.42;;;;;;;;;;5117887;28;20202;-63
2023/07/27 03:29:22;;;;;;;2.38;2.17;;;;;;;;;;5118110;28;20203;-63
2023/07/27 03:31:51;;;;;;;2.60;2.20;;;;;;;;;;5117478;28;20290;-63
2023/07/27 03:34:19;;;;;;;2.03;1.92;;;;;;;;;;5117359;28;20250;-63
2023/07/27 03:36:46;;;;;;;2.47;2.28;;;;;;;;;;5117441;28;20242;-63
2023/07/27 03:39:14;;;;;;;3.67;2.17;;;;;;;;;;5117708;28;20587;-63
2023/07/27 03:41:41;;;;;;;2.47;2.28;;;;;;;;;;5117903;28;20313;-63
2023/07/27 03:44:11;;;;;;;2.75;2.42;;;;;;;;;;5117668;28;20203;-63
2023/07/27 03:46:39;;;;;;;3.00;2.30;;;;;;;;;;5117537;28;20203;-63
2023/07/27 03:49:08;;;;;;;2.95;2.22;;;;;;;;;;5116912;28;20309;-63
2023/07/27 03:51:36;;;;;;;2.97;2.42;;;;;;;;;;5117125;28;20229;-63
2023/07/27 03:54:03;;;;;;;2.88;2.60;;;;;;;;;;5117502;28;20209;-63
2023/07/27 03:56:30;;;;;;;2.90;2.70;;;;;;;;;;5117391;28;20591;-63
2023/07/27 03:58:58;;;;;;;2.60;2.40;;;;;;;;;;5117289;28;20293;-63
2023/07/27 04:01:26;;;;;;;2.78;2.45;;;;;;;;;;5117120;28;20649;-63
2023/07/27 04:03:53;;;;;;;2.60;2.40;;;;;;;;;;5117377;28;20199;-63
2023/07/27 04:06:22;;;;;;;2.65;2.45;;;;;;;;;;5117143;28;20288;-64
2023/07/27 04:08:49;;;;;;;2.88;2.60;;;;;;;;;;5117543;28;20238;-63
2023/07/27 04:11:17;;;;;;;2.83;2.63;;;;;;;;;;5117350;28;20203;-63
2023/07/27 04:13:44;;;;;;;3.20;2.58;;;;;;;;;;5117440;28;20334;-63
2023/07/27 04:16:12;;;;;;;3.33;2.88;;;;;;;;;;5116596;28;20297;-63
2023/07/27 04:18:39;;;;;;;3.08;2.40;;;;;;;;;;5118148;28;20211;-63
2023/07/27 04:21:07;;;;;;;2.67;2.47;;;;;;;;;;5120384;28;20210;-63
2023/07/27 04:23:35;;;;;;;2.95;2.45;;;;;;;;;;5120982;28;20223;-63
2023/07/27 04:26:03;;;;;;;2.65;2.42;;;;;;;;;;5120872;28;20575;-63
2023/07/27 04:28:31;;;;;;;2.70;2.50;;;;;;;;;;5120859;28;20213;-63
2023/07/27 04:30:59;;;;;;;3.10;2.35;;;;;;;;;;5120337;28;20305;-63
2023/07/27 04:33:26;;;;;;;3.35;2.60;;;;;;;;;;5120374;28;20286;-63
2023/07/27 04:35:54;;;;;;;2.63;2.42;;;;;;;;;;5120081;28;20231;-63
2023/07/27 04:38:21;;;;;;;3.00;2.70;;;;;;;;;;5119700;28;20253;-63
2023/07/27 04:40:51;;;;;;;2.85;2.55;;;;;;;;;;5119447;28;20203;-63
2023/07/27 04:43:19;;;;;;;2.58;2.38;;;;;;;;;;5119002;28;20288;-63
2023/07/27 04:45:46;;;;;;;2.58;2.30;;;;;;;;;;5120218;28;20203;-63
2023/07/27 04:48:14;;;;;;;2.75;2.55;;;;;;;;;;5119457;28;20302;-63
2023/07/27 04:50:41;;;;;;;3.28;2.70;;;;;;;;;;5120439;28;20268;-63
2023/07/27 04:53:09;;;;;;;2.78;2.50;;;;;;;;;;5119823;28;20237;-63
2023/07/27 04:55:36;;;;;;;3.33;2.38;;;;;;;;;;5119975;28;20294;-63
2023/07/27 04:58:05;;;;;;;2.83;2.63;;;;;;;;;;5119727;28;20225;-63
2023/07/27 05:00:32;;;;;;;2.50;2.30;;;;;;;;;;5119689;28;20202;-63
2023/07/27 05:03:00;;;;;;;2.17;2.08;;;;;;;;;;5119968;28;20273;-63
2023/07/27 05:05:27;;;;;;;3.65;2.53;;;;;;;;;;5119650;28;20214;-63
2023/07/27 05:07:55;;;;;;;2.40;2.20;;;;;;;;;;5119144;28;20209;-63
2023/07/27 05:10:23;;;;;;;2.58;2.38;;;;;;;;;;5119192;28;20207;-63
2023/07/27 05:12:51;;;;;;;2.95;2.70;;;;;;;;;;5119486;28;20214;-63
2023/07/27 05:15:20;;;;;;;3.08;2.70;;;;;;;;;;5119548;28;20702;-63
2023/07/27 05:17:47;;;;;;;2.97;2.35;;;;;;;;;;5118909;28;20203;-63
2023/07/27 05:20:15;;;;;;;2.55;2.35;;;;;;;;;;5118963;28;20210;-63
2023/07/27 05:22:43;;;;;;;2.78;2.58;;;;;;;;;;5119234;28;20570;-63
2023/07/27 05:25:11;;;;;;;2.67;2.47;;;;;;;;;;5118377;28;20222;-63
2023/07/27 05:27:38;;;;;;;2.85;2.53;;;;;;;;;;5119097;28;20613;-63
2023/07/27 05:30:06;;;;;;;2.90;2.47;;;;;;;;;;5118028;28;20203;-63
2023/07/27 05:32:35;;;;;;;2.47;2.28;;;;;;;;;;5117810;28;20199;-63
2023/07/27 05:35:03;;;;;;;2.75;2.30;;;;;;;;;;5118015;28;20262;-64
2023/07/27 05:37:30;;;;;;;2.70;2.40;;;;;;;;;;5118108;28;20272;-63
2023/07/27 05:39:57;;;;;;;2.63;2.42;;;;;;;;;;5118187;28;20484;-63
2023/07/27 05:42:26;;;;;;;2.88;2.60;;;;;;;;;;5118800;28;20320;-63
2023/07/27 05:44:53;;;;;;;3.17;2.40;;;;;;;;;;5118413;28;20701;-63
2023/07/27 05:47:21;;;;;;;2.60;2.40;;;;;;;;;;5118276;28;20207;-64
2023/07/27 05:49:50;;;;;;;2.60;2.40;;;;;;;;;;5118011;28;20195;-63
2023/07/27 05:52:17;;;;;;;3.20;2.28;;;;;;;;;;5118128;28;20210;-63
2023/07/27 05:54:45;;;;;;;2.58;2.38;;;;;;;;;;5118109;28;20297;-63
2023/07/27 05:57:12;;;;;;;2.50;2.30;;;;;;;;;;5118271;28;20728;-63
2023/07/27 05:59:40;;;;;;;2.53;2.30;;;;;;;;;;5118514;28;20229;-63
2023/07/27 06:02:08;;;;;;;2.25;2.08;;;;;;;;;;5118256;28;20756;-63
2023/07/27 06:04:35;;;;;;;3.15;2.35;;;;;;;;;;5118088;28;20653;-63
2023/07/27 06:07:05;;;;;;;2.38;2.13;;;;;;;;;;5118010;28;20206;-63
2023/07/27 06:09:32;;;;;;;2.40;2.20;;;;;;;;;;5117734;28;20207;-63
2023/07/27 06:12:00;;;;;;;2.53;2.33;;;;;;;;;;5117960;28;20301;-63
2023/07/27 06:14:27;;;;;;;2.50;2.30;;;;;;;;;;5118050;28;20210;-63
2023/07/27 06:16:55;;;;;;;2.63;2.42;;;;;;;;;;5118332;28;20269;-63
2023/07/27 06:19:22;;;;;;;2.50;2.30;;;;;;;;;;5117803;28;20203;-63
2023/07/27 06:21:50;;;;;;;3.10;2.40;;;;;;;;;;5116673;28;20233;-63
2023/07/27 06:24:19;;;;;;;2.17;1.92;;;;;;;;;;5117461;28;20206;-63
2023/07/27 06:26:46;;;;;;;2.50;2.30;;;;;;;;;;5117612;28;20584;-63
2023/07/27 06:29:14;;;;;;;2.50;2.30;;;;;;;;;;5117482;28;20264;-63
2023/07/27 06:31:41;;;;;;;3.20;2.53;;;;;;;;;;5117408;28;20485;-63
2023/07/27 06:34:09;;;;;;;2.40;2.20;;;;;;;;;;5116591;28;20221;-63
2023/07/27 06:36:36;;;;;;;2.72;2.10;;;;;;;;;;5116329;28;20554;-63
2023/07/27 06:39:04;;;;;;;2.63;2.10;;;;;;;;;;5117128;28;20202;-63
2023/07/27 06:41:33;;;;;;;3.50;2.22;;;;;;;;;;5117014;28;20213;-63
2023/07/27 06:44:01;;;;;;;2.50;2.30;;;;;;;;;;5117731;28;20222;-63
2023/07/27 06:46:28;;;;;;;2.30;2.10;;;;;;;;;;5117516;28;20207;-63
2023/07/27 06:48:56;;;;;;;2.55;2.35;;;;;;;;;;5117024;28;20618;-63
2023/07/27 06:51:24;;;;;;;3.53;2.40;;;;;;;;;;5116974;28;20203;-63
2023/07/27 06:53:51;;;;;;;2.60;2.40;;;;;;;;;;5117162;28;20206;-63
2023/07/27 06:56:18;;;;;;;2.10;1.90;;;;;;;;;;5117059;28;20213;-63
2023/07/27 06:58:47;;;;;;;2.47;2.28;;;;;;;;;;5116745;28;20202;-64
2023/07/27 07:01:15;;;;;;;2.10;1.90;;;;;;;;;;5116724;28;20298;-63
2023/07/27 07:03:42;;;;;;;3.00;2.50;;;;;;;;;;5116889;28;20223;-63
2023/07/27 07:06:10;;;;;;;2.88;2.67;;;;;;;;;;5116935;28;20205;-63
2023/07/27 07:08:38;;;;;;;2.47;2.28;;;;;;;;;;5117001;28;20241;-63
2023/07/27 07:11:05;;;;;;;3.47;2.42;;;;;;;;;;5116078;28;20639;-63
2023/07/27 07:13:33;;;;;;;2.60;2.40;;;;;;;;;;5116627;28;20232;-63
2023/07/27 07:16:02;;;;;;;2.90;2.42;;;;;;;;;;5116770;28;20644;-63
2023/07/27 07:18:30;;;;;;;2.72;2.53;;;;;;;;;;5116752;28;20214;-63
2023/07/27 07:20:57;;;;;;;2.85;2.63;;;;;;;;;;5116851;28;20213;-63
2023/07/27 07:23:25;;;;;;;2.80;2.50;;;;;;;;;;5116378;28;20336;-63
2023/07/27 07:25:53;;;;;;;2.88;2.60;;;;;;;;;;5116386;28;20267;-64
2023/07/27 07:28:20;;;;;;;2.83;2.47;;;;;;;;;;5116045;28;20203;-63
2023/07/27 07:30:48;;;;;;;3.15;2.60;;;;;;;;;;5116871;28;20209;-63
2023/07/27 07:33:17;;;;;;;3.00;2.42;;;;;;;;;;5116476;28;20235;-63
2023/07/27 07:35:44;;;;;;;3.17;2.53;;;;;;;;;;5116257;28;20282;-63
2023/07/27 07:38:11;;;;;;;2.60;2.40;;;;;;;;;;5116375;28;20210;-63
2023/07/27 07:40:39;;;;;;;3.13;2.38;;;;;;;;;;5116159;28;20238;-63
2023/07/27 07:43:08;;;;;;;2.83;2.63;;;;;;;;;;5115623;28;20314;-63
2023/07/27 07:45:35;;;;;;;2.50;2.30;;;;;;;;;;5116511;28;20210;-63
2023/07/27 07:48:03;;;;;;;2.67;2.47;;;;;;;;;;5116093;28;20207;-64
2023/07/27 07:50:33;;;;;;;2.80;2.50;;;;;;;;;;5116227;28;20226;-64
2023/07/27 07:53:00;;;;;;;2.63;2.42;;;;;;;;;;5116842;28;20207;-63
2023/07/27 07:55:27;;;;;;;3.45;2.40;;;;;;;;;;5120658;28;20512;-63
2023/07/27 07:57:55;;;;;;;2.80;2.60;;;;;;;;;;5120065;28;20335;-63
2023/07/27 08:00:22;;;;;;;2.88;2.58;;;;;;;;;;5119392;28;20213;-63
2023/07/27 08:02:50;;;;;;;2.90;2.70;;;;;;;;;;5119349;28;20250;-63
2023/07/27 08:05:17;;;;;;;3.28;2.67;;;;;;;;;;5119893;28;20344;-63
2023/07/27 08:07:47;;;;;;;3.38;2.60;;;;;;;;;;5120469;28;20750;-63
2023/07/27 08:10:14;;;;;;;2.90;2.58;;;;;;;;;;5120423;28;20508;-63
2023/07/27 08:12:42;;;;;;;2.97;2.70;;;;;;;;;;5119642;28;20571;-63
2023/07/27 08:15:09;;;;;;;3.28;2.70;;;;;;;;;;5119071;28;20217;-63
2023/07/27 08:17:37;;;;;;;2.92;2.72;;;;;;;;;;5118566;28;20543;-63
2023/07/27 08:20:04;;;;;;;3.15;2.85;;;;;;;;;;5118595;28;20294;-63
2023/07/27 08:22:32;;;;;;;3.90;2.65;;;;;;;;;;5118147;28;20211;-63
2023/07/27 08:25:01;;;;;;;2.53;2.33;;;;;;;;;;5118876;28;20234;-63
2023/07/27 08:27:30;;;;;;;2.92;2.35;;;;;;;;;;5118758;28;20203;-64
2023/07/27 08:29:57;;;;;;;2.53;2.33;;;;;;;;;;5119024;28;20203;-63
2023/07/27 08:32:24;;;;;;;3.10;2.60;;;;;;;;;;5118941;28;20203;-63
2023/07/27 08:34:52;;;;;;;2.78;2.58;;;;;;;;;;5118333;28;20306;-63
2023/07/27 08:37:19;;;;;;;2.80;2.60;;;;;;;;;;5118488;28;20203;-63
2023/07/27 08:39:48;;;;;;;2.72;2.42;;;;;;;;;;5118504;28;20226;-64
2023/07/27 08:42:17;;;;;;;4.28;2.33;;;;;;;;;;5118630;28;20226;-63
2023/07/27 08:44:44;;;;;;;2.75;2.55;;;;;;;;;;5118436;28;20623;-63
2023/07/27 08:47:12;;;;;;;2.90;2.67;;;;;;;;;;5118687;28;20281;-63
2023/07/27 08:49:40;;;;;;;2.65;2.45;;;;;;;;;;5117899;28;20203;-63
2023/07/27 08:52:08;;;;;;;2.95;2.65;;;;;;;;;;5117476;28;20272;-63
2023/07/27 08:54:36;;;;;;;2.53;2.33;;;;;;;;;;5117698;28;20394;-63
2023/07/27 08:57:03;;;;;;;3.17;2.38;;;;;;;;;;5117664;28;20648;-63
2023/07/27 08:59:33;;;;;;;2.83;2.50;;;;;;;;;;5117183;28;20230;-63
2023/07/27 09:02:00;;;;;;;2.95;2.53;;;;;;;;;;5118636;28;20203;-63
2023/07/27 09:04:28;;;;;;;3.88;2.80;;;;;;;;;;5118113;28;20254;-63
2023/07/27 09:06:55;;;;;;;3.53;3.17;;;;;;;;;;5117542;28;20592;-63
2023/07/27 09:09:25;;;;;;;3.58;2.58;;;;;;;;;;5117949;28;20480;-63
2023/07/27 09:11:54;;;;;;;2.72;2.50;;;;;;;;;;5117821;28;20225;-63
2023/07/27 09:14:21;;;;;;;4.30;2.55;;;;;;;;;;5117746;28;20694;-63
2023/07/27 09:16:51;;;;;;;2.92;2.63;;;;;;;;;;5117313;28;20199;-63
2023/07/27 09:19:19;;;;;;;3.22;2.92;;;;;;;;;;5117253;28;20202;-63
2023/07/27 09:21:48;;;;;;;3.05;2.70;;;;;;;;;;5116679;28;20565;-63
2023/07/27 09:24:16;;;;;;;3.10;2.80;;;;;;;;;;5117431;28;20261;-64
2023/07/27 09:26:45;;;;;;;3.20;2.90;;;;;;;;;;5117134;28;20202;-63
2023/07/27 09:29:13;;;;;;;2.85;2.65;;;;;;;;;;5117521;28;20214;-63
2023/07/27 09:31:46;;;;;;;3.03;2.80;;;;;;;;;;5116857;28;20239;-63
2023/07/27 09:34:15;;;;;;;3.17;2.88;;;;;;;;;;5116708;28;20195;-64
2023/07/27 09:36:43;;;;;;;3.38;2.80;;;;;;;;;;5117827;28;20242;-63
2023/07/27 09:39:10;;;;;;;3.17;2.78;;;;;;;;;;5117607;28;20246;-63
2023/07/27 09:41:38;;;;;;;2.88;2.58;;;;;;;;;;5117590;28;20648;-64
2023/07/27 09:44:06;;;;;;;2.80;2.60;;;;;;;;;;5117064;28;20235;-64
2023/07/27 09:46:33;;;;;;;3.13;2.83;;;;;;;;;;5116665;28;20305;-63
2023/07/27 09:49:01;;;;;;;3.72;3.10;;;;;;;;;;5117852;28;20207;-63
2023/07/27 09:51:31;;;;;;;3.03;2.80;;;;;;;;;;5117414;28;20637;-64
2023/07/27 09:54:00;;;;;;;3.63;2.90;;;;;;;;;;5117044;28;20195;-63
2023/07/27 09:56:29;;;;;;;3.25;2.47;;;;;;;;;;5116876;28;20230;-64
2023/07/27 09:58:57;;;;;;;3.35;2.90;;;;;;;;;;5117165;28;20595;-64
2023/07/27 10:01:24;;;;;;;2.60;2.40;;;;;;;;;;5116670;28;20203;-63
2023/07/27 10:03:57;;;;;;;3.33;2.38;;;;;;;;;;5116468;28;20222;-63
2023/07/27 10:06:25;;;;;;;3.08;2.70;;;;;;;;;;5117178;28;20202;-64
2023/07/27 10:08:56;;;;;;;3.08;2.65;;;;;;;;;;5116658;28;20203;-63
2023/07/27 10:11:30;;;;;;;3.50;2.75;;;;;;;;;;5116908;28;20265;-63
2023/07/27 10:13:58;;;;;;;4.38;2.50;;;;;;;;;;5116862;28;20195;-63
2023/07/27 10:16:29;;;;;;;2.28;2.08;;;;;;;;;;5116632;28;20309;-64
2023/07/27 10:18:56;;;;;;;2.72;2.53;;;;;;;;;;5116578;28;20213;-62
2023/07/27 10:21:27;;;;;;;2.45;2.25;;;;;;;;;;5116541;28;20242;-62
2023/07/27 10:23:57;;;;;;;2.35;2.15;;;;;;;;;;5116356;28;20503;-63
2023/07/27 10:26:44;;;;;;;2.55;2.35;;;;;;;;;;5115762;28;20246;-63
2023/07/27 10:29:16;;;;;;;3.67;2.10;;;;;;;;;;5116683;28;20267;-65
2023/07/27 10:31:45;;;;;;;2.80;2.30;;;;;;;;;;5115693;28;20308;-63
2023/07/27 10:34:16;;;;;;;2.83;2.40;;;;;;;;;;5116443;28;20483;-62
2023/07/27 10:36:50;;;;;;;3.00;2.58;;;;;;;;;;5116213;28;20195;-63
2023/07/27 10:39:19;;;;;;;2.97;2.40;;;;;;;;;;5116217;28;20201;-62
2023/07/27 10:42:00;;;;;;;3.20;2.90;;;;;;;;;;5116130;28;20245;-64
2023/07/27 10:44:28;;;;;;;2.78;2.45;;;;;;;;;;5116939;28;20318;-64
2023/07/27 10:47:01;;;;;;;3.05;2.60;;;;;;;;;;5115751;28;20225;-64
2023/07/27 10:49:30;;;;;;;2.83;2.53;;;;;;;;;;5114953;28;20301;-65
2023/07/27 10:52:00;;;;;;;2.92;2.63;;;;;;;;;;5115104;28;20305;-65
2023/07/27 10:54:29;;;;;;;3.55;2.38;;;;;;;;;;5115742;28;20242;-65
2023/07/27 10:56:56;;;;;;;3.80;2.53;;;;;;;;;;5115289;28;20202;-65
2023/07/27 10:59:24;;;;;;;2.50;2.30;;;;;;;;;;5116027;28;20207;-65
2023/07/27 11:01:51;;;;;;;3.00;2.75;;;;;;;;;;5115851;28;20297;-64
2023/07/27 11:04:20;;;;;;;3.30;3.00;;;;;;;;;;5115704;28;20285;-63
2023/07/27 11:06:47;;;;;;;4.05;3.10;;;;;;;;;;5115290;28;20720;-65
2023/07/27 11:09:16;;;;;;;3.17;2.88;;;;;;;;;;5115251;28;20234;-65
2023/07/27 11:11:45;;;;;;;3.10;2.80;;;;;;;;;;5115453;28;20203;-63
2023/07/27 11:14:13;;;;;;;2.90;2.70;;;;;;;;;;5115191;28;20206;-64
2023/07/27 11:16:40;;;;;;;3.05;2.75;;;;;;;;;;5116050;28;20557;-63
2023/07/27 11:19:09;;;;;;;2.83;2.63;;;;;;;;;;5115889;28;20555;-63
2023/07/27 11:21:39;;;;;;;3.55;2.75;;;;;;;;;;5115701;28;20285;-63
2023/07/27 11:24:08;;;;;;;3.33;3.13;;;;;;;;;;5115675;28;20246;-63
2023/07/27 11:26:36;;;;;;;3.60;3.30;;;;;;;;;;5115720;28;20307;-63
2023/07/27 11:29:05;;;;;;;2.88;2.60;;;;;;;;;;5117983;28;20213;-63
2023/07/27 11:31:32;;;;;;;3.72;3.00;;;;;;;;;;5120389;28;20202;-63
2023/07/27 11:34:00;;;;;;;3.33;3.03;;;;;;;;;;5120033;28;20199;-63
2023/07/27 11:36:29;;;;;;;3.10;2.90;;;;;;;;;;5119506;28;20590;-63
2023/07/27 11:38:57;;;;;;;3.55;3.25;;;;;;;;;;5119416;28;20599;-63
2023/07/27 11:41:28;;;;;;;3.78;3.25;;;;;;;;;;5118550;28;20267;-63
2023/07/27 11:43:57;;;;;;;3.50;3.20;;;;;;;;;;5119194;28;20219;-63
2023/07/27 11:46:27;;;;;;;3.40;3.10;;;;;;;;;;5119766;28;20331;-63
2023/07/27 11:48:56;;;;;;;5.20;3.40;;;;;;;;;;5119044;28;20207;-63
2023/07/27 11:51:24;;;;;;;3.63;3.33;;;;;;;;;;5119446;28;20224;-63
2023/07/27 11:53:55;;;;;;;3.20;2.90;;;;;;;;;;5119305;28;20235;-63
2023/07/27 11:56:35;;;;;;;3.35;3.05;;;;;;;;;;5118621;28;20203;-63
2023/07/27 11:59:02;;;;;;;4.18;3.45;;;;;;;;;;5118802;28;20199;-63
2023/07/27 12:01:33;;;;;;;3.70;3.40;;;;;;;;;;5119295;28;20252;-64
2023/07/27 12:04:01;;;;;;;3.78;3.40;;;;;;;;;;5118841;28;20226;-64
2023/07/27 12:06:29;;;;;;;3.55;3.28;;;;;;;;;;5119268;28;20818;-63
2023/07/27 12:08:57;;;;;;;3.70;3.40;;;;;;;;;;5119039;28;20203;-63
2023/07/27 12:11:26;;;;;;;3.42;3.13;;;;;;;;;;5117787;28;20297;-63
2023/07/27 12:13:54;;;;;;;3.53;3.25;;;;;;;;;;5119202;28;20203;-64
2023/07/27 12:16:21;;;;;;;3.75;3.45;;;;;;;;;;5118557;28;20296;-63
2023/07/27 12:18:50;;;;;;;3.72;3.42;;;;;;;;;;5118378;28;20199;-63
2023/07/27 12:21:18;;;;;;;3.40;3.10;;;;;;;;;;5118442;28;20222;-63
2023/07/27 12:23:45;;;;;;;3.55;3.25;;;;;;;;;;5118044;28;20302;-63
2023/07/27 12:26:12;;;;;;;3.78;3.42;;;;;;;;;;5109834;28;20472;-63
2023/07/27 12:28:41;;;;;;;3.53;3.28;;;;;;;;;;5118862;28;20305;-63
2023/07/27 12:31:09;;;;;;;3.92;3.58;;;;;;;;;;5118458;28;20206;-63
2023/07/27 12:33:36;;;;;;;3.75;3.42;;;;;;;;;;5118033;28;20203;-63
2023/07/27 12:36:05;;;;;;;3.08;2.88;;;;;;;;;;5118562;28;20274;-63
2023/07/27 12:38:33;;;;;;;3.28;2.97;;;;;;;;;;5117271;28;20678;-63
2023/07/27 12:41:00;;;;;;;3.13;2.90;;;;;;;;;;5118097;28;20306;-63
2023/07/27 12:43:28;;;;;;;2.90;2.63;;;;;;;;;;5118186;28;20454;-64
2023/07/27 12:45:55;;;;;;;2.78;2.38;;;;;;;;;;5118130;28;20258;-64
2023/07/27 12:48:23;;;;;;;3.25;2.72;;;;;;;;;;5117913;28;20213;-64
2023/07/27 12:50:50;;;;;;;3.00;2.75;;;;;;;;;;5117136;28;20203;-63
2023/07/27 12:53:19;;;;;;;3.83;3.15;;;;;;;;;;5118078;28;20474;-63
2023/07/27 12:55:46;;;;;;;3.15;2.72;;;;;;;;;;5117555;28;20559;-64
2023/07/27 12:58:14;;;;;;;2.80;2.60;;;;;;;;;;5118220;28;20234;-63
2023/07/27 13:00:44;;;;;;;3.17;2.88;;;;;;;;;;5117166;28;20199;-64
2023/07/27 13:03:11;;;;;;;2.85;2.65;;;;;;;;;;5117753;28;20206;-63
2023/07/27 13:05:38;;;;;;;2.63;2.42;;;;;;;;;;5117944;28;20572;-63
2023/07/27 13:08:06;;;;;;;2.90;2.70;;;;;;;;;;5116565;28;20238;-64
2023/07/27 13:10:35;;;;;;;3.42;2.55;;;;;;;;;;5118284;28;20238;-63
2023/07/27 13:13:02;;;;;;;3.47;2.78;;;;;;;;;;5117290;28;20293;-63
2023/07/27 13:15:30;;;;;;;3.88;3.00;;;;;;;;;;5116596;28;20637;-63
2023/07/27 13:18:03;;;;;;;3.13;2.78;;;;;;;;;;5117028;28;20202;-64
2023/07/27 13:20:32;;;;;;;2.63;2.42;;;;;;;;;;5117970;28;20205;-64
2023/07/27 13:22:59;;;;;;;2.92;2.72;;;;;;;;;;5117910;28;20200;-63
2023/07/27 13:25:27;;;;;;;2.90;2.70;;;;;;;;;;5116689;28;20713;-63
2023/07/27 13:27:56;;;;;;;3.85;2.45;;;;;;;;;;5116715;28;20509;-63
2023/07/27 13:30:24;;;;;;;2.58;2.38;;;;;;;;;;5117205;28;20213;-63
2023/07/27 13:32:51;;;;;;;2.85;2.55;;;;;;;;;;5116576;28;20203;-63
2023/07/27 13:35:19;;;;;;;2.83;2.63;;;;;;;;;;5116993;28;20763;-63
2023/07/27 13:37:46;;;;;;;2.80;2.60;;;;;;;;;;5116772;28;20203;-64
2023/07/27 13:40:14;;;;;;;3.10;2.45;;;;;;;;;;5116208;28;20238;-63
2023/07/27 13:42:41;;;;;;;3.13;2.90;;;;;;;;;;5116291;28;20202;-64
2023/07/27 13:45:11;;;;;;;2.95;2.65;;;;;;;;;;5117682;28;20258;-63
2023/07/27 13:47:38;;;;;;;3.55;2.88;;;;;;;;;;5115208;28;20622;-63
2023/07/27 13:50:06;;;;;;;2.78;2.58;;;;;;;;;;5117177;28;20238;-63
2023/07/27 13:52:34;;;;;;;3.42;3.13;;;;;;;;;;5117182;28;20223;-63
2023/07/27 13:55:04;;;;;;;3.17;2.97;;;;;;;;;;5117556;28;20195;-63
2023/07/27 13:57:32;;;;;;;3.33;3.03;;;;;;;;;;5116884;28;20320;-63
2023/07/27 14:00:01;;;;;;;3.25;2.90;;;;;;;;;;5116684;28;20203;-63
2023/07/27 14:02:30;;;;;;;3.20;2.90;;;;;;;;;;5117383;28;20590;-63
2023/07/27 14:04:57;;;;;;;3.03;2.83;;;;;;;;;;5116143;28;20222;-63
2023/07/27 14:07:25;;;;;;;3.17;2.85;;;;;;;;;;5116702;28;20574;-63
2023/07/27 14:09:52;;;;;;;4.18;2.80;;;;;;;;;;5115616;28;20699;-63
2023/07/27 14:12:20;;;;;;;3.45;2.50;;;;;;;;;;5115828;28;20202;-63
2023/07/27 14:14:47;;;;;;;3.75;2.92;;;;;;;;;;5115991;28;20289;-64
2023/07/27 14:17:15;;;;;;;2.97;2.75;;;;;;;;;;5108591;28;20210;-64
2023/07/27 14:19:43;;;;;;;2.88;2.67;;;;;;;;;;5115443;28;20218;-64
2023/07/27 14:22:11;;;;;;;3.08;2.55;;;;;;;;;;5116025;28;20199;-64
2023/07/27 14:24:39;;;;;;;3.00;2.72;;;;;;;;;;5115070;28;20292;-63
2023/07/27 14:27:07;;;;;;;2.78;2.42;;;;;;;;;;5113888;28;20207;-63
2023/07/27 14:29:34;;;;;;;3.03;2.50;;;;;;;;;;5115454;28;20234;-63
2023/07/27 14:32:01;;;;;;;2.50;2.17;;;;;;;;;;5115892;28;20613;-64
2023/07/27 14:34:29;;;;;;;2.42;2.22;;;;;;;;;;5114499;28;20653;-63
2023/07/27 14:36:58;;;;;;;2.22;1.90;;;;;;;;;;5115319;28;20213;-64
2023/07/27 14:39:25;;;;;;;2.30;2.08;;;;;;;;;;5115787;28;20203;-63
2023/07/27 14:41:52;;;;;;;2.30;1.95;;;;;;;;;;5113723;28;20211;-63
2023/07/27 14:44:21;;;;;;;2.38;2.17;;;;;;;;;;5116022;28;20633;-63
2023/07/27 14:46:48;;;;;;;2.15;1.95;;;;;;;;;;5115959;28;20223;-63
2023/07/27 14:49:16;;;;;;;1.90;1.70;;;;;;;;;;5115355;28;20567;-64